Time;durP1;ratioP1;P1;durP2;ratioP2;P2;SDS_P1;SDS_P2;PMS_P1;PMS_P2;Temp;Humidity;BMP_temperature;BMP_pressure;BME280_temperature;BME280_humidity;BME280_pressure;Samples;Min_cycle;Max_cycle;Signal;HPM_P1;HPM_P2
2022/04/11 00:01:37;;;;;;;6.33;5.73;;;0.90;1.00;;;;;;5099927;28;20814;-63
2022/04/11 00:04:04;;;;;;;6.30;5.70;;;0.90;1.00;;;;;;5100100;28;20490;-63
2022/04/11 00:06:31;;;;;;;11.03;6.80;;;1.00;1.00;;;;;;5106843;28;20456;-63
2022/04/11 00:08:58;;;;;;;6.90;5.73;;;0.90;1.00;;;;;;5099587;28;20513;-63
2022/04/11 00:11:28;;;;;;;6.77;5.40;;;1.00;1.00;;;;;;5106701;28;20512;-63
2022/04/11 00:13:55;;;;;;;7.07;5.67;;;0.90;1.00;;;;;;5099340;28;20461;-63
2022/04/11 00:16:23;;;;;;;7.30;6.50;;;0.90;1.00;;;;;;5109531;28;20873;-63
2022/04/11 00:18:50;;;;;;;8.73;5.73;;;0.90;1.00;;;;;;5120327;28;20549;-63
2022/04/11 00:21:17;;;;;;;7.57;6.77;;;0.90;1.00;;;;;;5119531;28;20453;-63
2022/04/11 00:23:53;;;;;;;8.30;6.03;;;1.00;1.00;;;;;;5120069;28;20461;-63
2022/04/11 00:26:21;;;;;;;10.23;6.37;;;1.00;1.00;;;;;;5114179;28;20454;-63
2022/04/11 00:28:51;;;;;;;8.23;6.87;;;1.00;1.00;;;;;;5099694;28;20809;-63
2022/04/11 00:31:23;;;;;;;6.40;5.87;;;0.90;1.00;;;;;;5099462;28;20780;-63
2022/04/11 00:34:08;;;;;;;7.30;6.17;;;0.90;1.00;;;;;;5099134;28;20537;-63
2022/04/11 00:36:35;;;;;;;8.13;6.50;;;1.00;1.00;;;;;;5101844;28;20454;-63
2022/04/11 00:39:02;;;;;;;9.93;6.43;;;0.90;1.00;;;;;;5120132;28;20458;-63
2022/04/11 00:41:29;;;;;;;8.80;5.90;;;1.00;1.00;;;;;;5119138;28;20459;-63
2022/04/11 00:43:59;;;;;;;7.47;6.30;;;1.00;1.00;;;;;;5119430;28;20545;-63
2022/04/11 00:46:30;;;;;;;7.10;6.40;;;1.00;1.00;;;;;;5119441;28;20838;-63
2022/04/11 00:48:57;;;;;;;6.33;5.70;;;1.00;1.00;;;;;;5099259;28;20898;-63
2022/04/11 00:51:26;;;;;;;7.90;6.83;;;1.00;1.00;;;;;;5098720;28;20949;-63
2022/04/11 00:53:56;;;;;;;9.57;7.20;;;1.00;1.00;;;;;;5098422;28;20563;-63
2022/04/11 00:56:25;;;;;;;7.60;6.53;;;0.90;1.00;;;;;;5099106;28;20496;-63
2022/04/11 00:58:52;;;;;;;10.60;6.10;;;0.90;1.00;;;;;;5116339;28;20488;-63
2022/04/11 01:01:21;;;;;;;8.90;6.47;;;0.90;1.00;;;;;;5118555;28;20456;-63
2022/04/11 01:03:48;;;;;;;7.97;6.20;;;0.80;1.00;;;;;;5118928;28;20432;-63
2022/04/11 01:06:18;;;;;;;7.93;6.10;;;0.80;1.00;;;;;;5119075;28;20917;-63
2022/04/11 01:08:45;;;;;;;5.93;5.33;;;0.80;1.00;;;;;;5118727;28;20964;-63
2022/04/11 01:11:12;;;;;;;8.57;5.87;;;0.80;1.00;;;;;;5119456;28;20552;-63
2022/04/11 01:13:44;;;;;;;10.33;6.53;;;0.80;1.00;;;;;;5117991;28;20458;-63
2022/04/11 01:16:26;;;;;;;8.70;6.00;;;0.80;1.00;;;;;;5119137;28;20458;-63
2022/04/11 01:18:54;;;;;;;7.00;5.43;;;0.90;1.00;;;;;;5117882;28;20748;-63
2022/04/11 01:21:27;;;;;;;8.00;5.47;;;0.90;1.00;;;;;;5118396;28;20523;-63
2022/04/11 01:23:57;;;;;;;7.43;5.30;;;0.80;1.00;;;;;;5118542;28;20484;-63
2022/04/11 01:26:31;;;;;;;6.17;4.93;;;0.90;1.00;;;;;;5118822;28;20462;-63
2022/04/11 01:28:59;;;;;;;8.33;6.90;;;0.90;1.00;;;;;;5117715;28;20454;-63
2022/04/11 01:31:26;;;;;;;7.00;6.30;;;0.90;1.00;;;;;;5117012;28;20500;-63
2022/04/11 01:33:56;;;;;;;8.67;5.90;;;0.80;1.00;;;;;;5118098;28;20463;-63
2022/04/11 01:36:26;;;;;;;7.73;5.73;;;0.90;1.00;;;;;;5118166;28;20776;-63
2022/04/11 01:38:58;;;;;;;9.30;6.60;;;0.90;1.00;;;;;;5118654;28;20502;-63
2022/04/11 01:41:30;;;;;;;6.27;5.67;;;0.90;1.00;;;;;;5117951;28;20499;-63
2022/04/11 01:43:57;;;;;;;6.47;5.60;;;0.90;1.00;;;;;;5118676;28;20794;-63
2022/04/11 01:46:29;;;;;;;6.63;6.03;;;0.90;1.00;;;;;;5117894;28;20478;-63
2022/04/11 01:48:56;;;;;;;7.27;6.37;;;0.90;1.00;;;;;;5118453;28;20519;-63
2022/04/11 01:51:23;;;;;;;8.10;5.97;;;0.90;1.00;;;;;;5117947;28;20487;-63
2022/04/11 01:53:50;;;;;;;6.00;5.40;;;1.00;1.00;;;;;;5117697;28;20462;-63
2022/04/11 01:56:20;;;;;;;6.23;5.63;;;1.10;1.00;;;;;;5117928;28;20459;-63
2022/04/11 01:58:47;;;;;;;8.43;5.90;;;1.10;1.00;;;;;;5117774;28;20475;-63
2022/04/11 02:01:19;;;;;;;8.17;5.07;;;1.10;1.00;;;;;;5118016;28;20506;-63
2022/04/11 02:03:46;;;;;;;7.47;6.10;;;1.10;1.00;;;;;;5117994;28;20775;-63
2022/04/11 02:06:13;;;;;;;9.00;5.37;;;1.10;1.00;;;;;;5118190;28;20502;-63
2022/04/11 02:08:41;;;;;;;6.63;5.70;;;1.10;1.00;;;;;;5102095;28;20438;-63
2022/04/11 02:11:13;;;;;;;7.57;5.73;;;1.20;1.00;;;;;;5097754;28;20492;-64
2022/04/11 02:13:44;;;;;;;7.03;6.30;;;1.20;1.00;;;;;;5077576;28;20550;-63
2022/04/11 02:16:14;;;;;;;5.70;5.20;;;1.20;1.00;;;;;;5075769;28;20518;-63
2022/04/11 02:18:41;;;;;;;7.17;5.50;;;1.30;1.00;;;;;;5099348;28;20517;-63
2022/04/11 02:21:08;;;;;;;5.80;5.20;;;1.40;1.00;;;;;;5118106;28;20462;-63
2022/04/11 02:23:37;;;;;;;6.30;5.23;;;1.40;1.00;;;;;;5117344;28;20460;-63
2022/04/11 02:26:06;;;;;;;6.60;5.97;;;1.40;1.00;;;;;;5117792;28;20464;-63
2022/04/11 02:28:35;;;;;;;7.03;4.60;;;1.50;1.00;;;;;;5111567;28;20495;-63
2022/04/11 02:31:03;;;;;;;6.47;4.80;;;1.50;1.00;;;;;;5096430;28;20490;-63
2022/04/11 02:33:33;;;;;;;6.43;5.53;;;1.60;1.00;;;;;;5097268;28;20716;-63
2022/04/11 02:36:03;;;;;;;7.10;4.93;;;1.60;1.00;;;;;;5097572;28;20452;-63
2022/04/11 02:38:30;;;;;;;5.73;5.10;;;1.60;1.00;;;;;;5098595;28;20521;-63
2022/04/11 02:41:06;;;;;;;6.00;4.70;;;1.60;1.00;;;;;;5118376;28;20466;-63
2022/04/11 02:43:33;;;;;;;5.70;5.10;;;1.70;1.00;;;;;;5109866;28;20498;-63
2022/04/11 02:46:06;;;;;;;8.70;5.43;;;1.70;1.00;;;;;;5097345;28;20463;-63
2022/04/11 02:48:33;;;;;;;6.57;5.23;;;1.70;1.00;;;;;;5096978;28;20517;-63
2022/04/11 02:51:05;;;;;;;6.40;5.77;;;1.70;1.00;;;;;;5115728;28;20491;-63
2022/04/11 02:53:34;;;;;;;7.23;5.37;;;1.80;1.00;;;;;;5117686;28;20825;-63
2022/04/11 02:56:01;;;;;;;6.43;4.87;;;1.80;1.00;;;;;;5117770;28;20448;-64
2022/04/11 02:58:32;;;;;;;4.97;4.47;;;1.80;1.00;;;;;;5117754;28;20490;-63
2022/04/11 03:00:59;;;;;;;5.20;4.70;;;1.80;1.00;;;;;;5110208;28;20949;-63
2022/04/11 03:03:27;;;;;;;5.80;5.10;;;1.80;1.00;;;;;;5117755;28;20460;-63
2022/04/11 03:06:03;;;;;;;6.40;5.30;;;1.80;1.00;;;;;;5117234;28;20539;-63
2022/04/11 03:08:33;;;;;;;4.73;4.33;;;1.80;1.00;;;;;;5116995;28;20459;-63
2022/04/11 03:11:07;;;;;;;7.93;4.83;;;1.90;1.00;;;;;;5105715;28;20835;-63
2022/04/11 03:13:34;;;;;;;7.93;5.10;;;1.90;1.00;;;;;;5097170;28;20449;-63
2022/04/11 03:16:03;;;;;;;7.57;4.90;;;1.90;1.00;;;;;;5098048;28;20472;-63
2022/04/11 03:18:34;;;;;;;5.53;4.60;;;2.00;1.00;;;;;;5097216;28;20541;-63
2022/04/11 03:21:01;;;;;;;4.93;4.50;;;1.90;1.00;;;;;;5102948;28;20467;-63
2022/04/11 03:23:31;;;;;;;5.43;4.70;;;2.00;1.00;;;;;;5117322;28;20532;-63
2022/04/11 03:26:00;;;;;;;7.20;5.00;;;2.00;1.00;;;;;;5116791;28;20459;-63
2022/04/11 03:28:27;;;;;;;5.03;4.53;;;2.00;1.00;;;;;;5111111;28;20444;-63
2022/04/11 03:30:56;;;;;;;6.50;5.00;;;2.00;1.00;;;;;;5100935;28;20472;-63
2022/04/11 03:33:24;;;;;;;5.57;4.30;;;1.90;1.00;;;;;;5120419;28;20872;-63
2022/04/11 03:35:52;;;;;;;6.80;4.80;;;1.90;1.00;;;;;;5120683;28;20475;-63
2022/04/11 03:38:19;;;;;;;6.23;4.90;;;1.90;1.00;;;;;;5120889;28;20459;-64
2022/04/11 03:40:46;;;;;;;7.07;4.73;;;1.90;1.00;;;;;;5120937;28;20467;-63
2022/04/11 03:43:19;;;;;;;6.20;4.77;;;1.90;1.00;;;;;;5101196;28;20521;-63
2022/04/11 03:45:45;;;;;;;5.23;4.73;;;1.90;1.00;;;;;;5100020;28;20502;-63
2022/04/11 03:48:12;;;;;;;6.80;5.30;;;1.80;1.00;;;;;;5100117;28;20818;-63
2022/04/11 03:50:40;;;;;;;6.63;5.03;;;1.80;1.00;;;;;;5100367;28;20746;-63
2022/04/11 03:53:08;;;;;;;5.60;5.00;;;1.90;1.00;;;;;;5100877;28;20574;-63
2022/04/11 03:55:38;;;;;;;5.70;5.20;;;1.90;1.00;;;;;;5100057;28;20460;-63
2022/04/11 03:58:08;;;;;;;6.03;5.10;;;1.90;1.00;;;;;;5111708;28;20854;-63
2022/04/11 04:00:39;;;;;;;8.33;5.13;;;1.90;1.00;;;;;;5120578;28;20821;-63
2022/04/11 04:03:07;;;;;;;6.23;4.70;;;1.90;1.00;;;;;;5120003;28;20455;-63
2022/04/11 04:05:40;;;;;;;7.80;4.97;;;1.90;1.00;;;;;;5120054;28;20474;-63
2022/04/11 04:08:09;;;;;;;5.77;5.23;;;1.90;1.00;;;;;;5119792;28;20464;-63
2022/04/11 04:10:39;;;;;;;9.93;5.83;;;1.90;1.00;;;;;;5119959;28;20527;-63
2022/04/11 04:13:09;;;;;;;6.53;5.40;;;1.90;1.00;;;;;;5119302;28;20996;-63
2022/04/11 04:15:37;;;;;;;8.90;4.60;;;1.80;1.00;;;;;;5119593;28;20459;-63
2022/04/11 04:18:07;;;;;;;7.03;5.37;;;1.90;1.00;;;;;;5120104;28;20776;-63
2022/04/11 04:20:34;;;;;;;14.50;5.07;;;1.90;1.00;;;;;;5119700;28;20463;-63
2022/04/11 04:23:08;;;;;;;5.30;4.80;;;1.80;1.00;;;;;;5119824;28;20883;-63
2022/04/11 04:25:39;;;;;;;6.70;4.57;;;1.70;1.00;;;;;;5118193;28;20463;-64
2022/04/11 04:28:13;;;;;;;6.27;5.67;;;1.70;1.00;;;;;;5119079;28;20459;-63
2022/04/11 04:30:41;;;;;;;9.87;5.37;;;1.60;1.00;;;;;;5119377;28;20915;-63
2022/04/11 04:33:08;;;;;;;8.87;4.57;;;1.60;1.00;;;;;;5119640;28;20784;-63
2022/04/11 04:35:38;;;;;;;11.03;5.00;;;1.60;1.00;;;;;;5118870;28;20524;-63
2022/04/11 04:38:05;;;;;;;5.87;4.67;;;1.60;1.00;;;;;;5119370;28;20466;-63
2022/04/11 04:40:33;;;;;;;5.70;5.20;;;1.50;1.00;;;;;;5118940;28;20463;-63
2022/04/11 04:43:00;;;;;;;9.13;6.30;;;1.50;1.00;;;;;;5119018;28;20456;-63
2022/04/11 04:45:33;;;;;;;19.07;5.30;;;1.50;1.00;;;;;;5119318;28;20461;-63
2022/04/11 04:48:03;;;;;;;5.53;5.03;;;1.50;1.00;;;;;;5118295;28;20516;-63
2022/04/11 04:50:30;;;;;;;4.63;4.23;;;1.50;1.00;;;;;;5119248;28;20458;-63
2022/04/11 04:52:57;;;;;;;5.37;4.87;;;1.50;1.00;;;;;;5117241;28;20483;-63
2022/04/11 04:55:28;;;;;;;8.90;5.17;;;1.60;1.00;;;;;;5117492;28;20457;-63
2022/04/11 04:57:58;;;;;;;7.13;5.30;;;1.50;1.00;;;;;;5117753;28;20935;-63
2022/04/11 05:00:32;;;;;;;6.90;4.93;;;1.50;1.00;;;;;;5118543;28;20826;-63
2022/04/11 05:03:02;;;;;;;9.40;4.80;;;1.50;1.00;;;;;;5117449;28;20429;-63
2022/04/11 05:05:29;;;;;;;6.10;4.63;;;1.50;99.90;;;;;;5118666;28;20490;-63
2022/04/11 05:07:59;;;;;;;6.77;5.20;;;1.40;99.90;;;;;;5117185;28;20822;-63
2022/04/11 05:10:28;;;;;;;6.80;5.00;;;1.40;99.90;;;;;;5118871;28;20462;-63
2022/04/11 05:13:00;;;;;;;6.00;4.50;;;1.30;1.00;;;;;;5118667;28;20490;-63
2022/04/11 05:15:27;;;;;;;6.07;4.97;;;1.30;1.00;;;;;;5118230;28;20468;-63
2022/04/11 05:17:54;;;;;;;7.20;5.37;;;1.30;1.00;;;;;;5116670;28;20518;-63
2022/04/11 05:20:21;;;;;;;9.60;5.20;;;1.30;1.00;;;;;;5118221;28;20466;-63
2022/04/11 05:22:48;;;;;;;6.33;5.07;;;1.30;1.00;;;;;;5118613;28;20970;-63
2022/04/11 05:25:15;;;;;;;7.77;5.53;;;1.20;1.00;;;;;;5118504;28;20470;-63
2022/04/11 05:27:45;;;;;;;5.93;4.87;;;1.30;1.00;;;;;;5116977;28;20458;-64
2022/04/11 05:30:15;;;;;;;5.67;5.10;;;1.30;1.00;;;;;;5116277;28;20582;-64
2022/04/11 05:32:46;;;;;;;7.00;5.10;;;1.40;1.00;;;;;;5116980;28;20567;-64
2022/04/11 05:35:13;;;;;;;14.47;7.37;;;1.40;1.00;;;;;;5118376;28;20529;-64
2022/04/11 05:37:42;;;;;;;5.80;4.93;;;1.50;1.00;;;;;;5117988;28;20455;-61
2022/04/11 05:40:12;;;;;;;5.50;4.53;;;1.60;1.00;;;;;;5117291;28;20830;-62
2022/04/11 05:42:44;;;;;;;5.93;5.03;;;1.70;1.00;;;;;;5117531;28;20778;-62
2022/04/11 05:45:13;;;;;;;7.87;5.60;;;1.80;1.00;;;;;;5118480;28;20879;-62
2022/04/11 05:47:40;;;;;;;5.93;4.43;;;1.80;1.00;;;;;;5118304;28;20441;-62
2022/04/11 05:50:09;;;;;;;5.83;4.77;;;2.00;1.00;;;;;;5117440;28;20502;-62
2022/04/11 05:52:36;;;;;;;9.80;5.10;;;2.10;1.00;;;;;;5117809;28;20525;-62
2022/04/11 05:55:07;;;;;;;7.03;5.33;;;2.30;99.90;;;;;;5117702;28;20523;-62
2022/04/11 05:57:37;;;;;;;5.57;5.07;;;2.40;99.90;;;;;;5117910;28;20486;-62
2022/04/11 06:00:05;;;;;;;4.90;4.50;;;2.60;99.90;;;;;;5110451;28;20460;-62
2022/04/11 06:02:33;;;;;;;7.83;5.90;;;2.70;99.90;;;;;;5096326;28;20492;-62
2022/04/11 06:05:03;;;;;;;5.20;4.70;;;2.90;99.90;;;;;;5097237;28;20467;-62
2022/04/11 06:07:35;;;;;;;5.83;5.23;;;3.10;99.90;;;;;;5097261;28;20460;-62
2022/04/11 06:10:03;;;;;;;7.00;4.80;;;3.20;99.90;;;;;;5098910;28;20468;-63
2022/04/11 06:12:30;;;;;;;8.83;7.93;;;3.40;99.90;;;;;;5117518;28;20548;-62
2022/04/11 06:14:58;;;;;;;9.67;4.90;;;3.70;99.90;;;;;;5106024;28;20499;-62
2022/04/11 06:17:26;;;;;;;5.73;5.13;;;4.00;99.90;;;;;;5116978;28;20460;-62
2022/04/11 06:20:00;;;;;;;9.43;5.17;;;4.20;99.90;;;;;;5117197;28;20489;-62
2022/04/11 06:22:28;;;;;;;6.50;5.17;;;4.70;99.90;;;;;;5097954;28;20451;-62
2022/04/11 06:25:01;;;;;;;5.23;4.30;;;5.00;99.90;;;;;;5100136;28;20463;-62
2022/04/11 06:27:32;;;;;;;6.10;4.70;;;5.20;99.90;;;;;;5117934;28;20508;-62
2022/04/11 06:30:02;;;;;;;5.37;4.37;;;5.40;99.90;;;;;;5106042;28;20465;-63
2022/04/11 06:32:34;;;;;;;4.77;4.27;;;5.80;99.90;;;;;;5102837;28;20495;-63
2022/04/11 06:35:05;;;;;;;5.20;4.30;;;6.10;99.90;;;;;;5086387;28;20883;-63
2022/04/11 06:37:35;;;;;;;10.23;9.13;;;6.40;99.90;;;;;;5084377;28;20467;-63
2022/04/11 06:40:06;;;;;;;10.20;6.07;;;6.50;99.90;;;;;;5096731;28;20488;-64
2022/04/11 06:42:33;;;;;;;5.13;4.57;;;6.90;99.90;;;;;;5097980;28;20893;-63
2022/04/11 06:45:04;;;;;;;7.17;4.70;;;7.20;99.90;;;;;;5097161;28;20460;-64
2022/04/11 06:47:37;;;;;;;6.00;4.07;;;7.50;99.90;;;;;;5096026;28;20439;-64
2022/04/11 06:50:10;;;;;;;4.50;4.10;;;7.60;99.90;;;;;;5096068;28;20464;-64
2022/04/11 06:52:44;;;;;;;5.47;4.30;;;7.90;99.90;;;;;;5101774;28;20557;-64
2022/04/11 06:55:11;;;;;;;7.50;4.43;;;8.10;99.90;;;;;;5104268;28;20837;-64
2022/04/11 06:57:41;;;;;;;4.30;3.90;;;8.20;99.90;;;;;;5107591;28;20525;-64
2022/04/11 07:00:11;;;;;;;5.30;4.80;;;8.40;99.90;;;;;;5103432;28;20460;-64
2022/04/11 07:02:38;;;;;;;6.90;5.00;;;8.70;99.90;;;;;;5098619;28;20456;-64
2022/04/11 07:05:08;;;;;;;5.10;4.10;;;9.00;99.90;;;;;;5105580;28;20460;-64
2022/04/11 07:07:37;;;;;;;8.10;4.67;;;9.20;99.90;;;;;;5100464;28;20464;-64
2022/04/11 07:10:05;;;;;;;6.93;4.60;;;9.20;99.90;;;;;;5100645;28;20763;-64
2022/04/11 07:12:32;;;;;;;6.07;5.10;;;9.20;99.90;;;;;;5100477;28;20499;-64
2022/04/11 07:15:03;;;;;;;6.23;4.70;;;9.30;99.90;;;;;;5104285;28;20464;-64
2022/04/11 07:17:36;;;;;;;6.37;4.57;;;9.40;99.90;;;;;;5098476;28;20491;-64
2022/04/11 07:20:15;;;;;;;5.70;4.50;;;9.70;99.90;;;;;;5095657;28;20776;-64
2022/04/11 07:22:43;;;;;;;6.07;5.47;;;10.00;99.90;;;;;;5100584;28;20467;-64
2022/04/11 07:25:10;;;;;;;12.23;6.73;;;10.00;99.90;;;;;;5099955;28;20571;-63
2022/04/11 07:27:44;;;;;;;9.97;6.30;;;9.90;99.90;;;;;;5100176;28;20809;-64
2022/04/11 07:30:13;;;;;;;7.43;6.47;;;10.00;99.90;;;;;;5089588;28;20560;-63
2022/04/11 07:32:43;;;;;;;12.10;9.63;;;10.20;99.90;;;;;;5099708;28;20460;-63
2022/04/11 07:35:14;;;;;;;11.67;7.80;;;10.30;99.90;;;;;;5112378;28;20907;-63
2022/04/11 07:37:44;;;;;;;5.93;5.43;;;10.40;99.90;;;;;;5102067;28;20460;-63
2022/04/11 07:40:14;;;;;;;6.30;5.17;;;10.60;99.90;;;;;;5100093;28;20521;-63
2022/04/11 07:42:46;;;;;;;8.47;5.93;;;10.70;99.90;;;;;;5100160;28;20821;-63
2022/04/11 07:45:23;;;;;;;7.63;6.00;;;11.00;99.90;;;;;;5109351;28;20819;-63
2022/04/11 07:47:52;;;;;;;5.23;4.70;;;11.10;99.90;;;;;;5099893;28;20497;-63
2022/04/11 07:50:23;;;;;;;6.73;4.80;;;11.20;99.90;;;;;;5100087;28;20834;-63
2022/04/11 07:52:53;;;;;;;4.90;4.13;;;11.50;99.90;;;;;;5099042;28;20940;-63
2022/04/11 07:55:19;;;;;;;5.00;4.37;;;11.60;99.90;;;;;;5104075;28;20456;-63
2022/04/11 07:57:47;;;;;;;7.00;5.80;;;11.70;99.90;;;;;;5108855;28;20795;-63
2022/04/11 08:00:17;;;;;;;5.93;4.97;;;11.70;99.90;;;;;;5119717;28;20489;-63
2022/04/11 08:02:45;;;;;;;5.33;4.80;;;11.80;99.90;;;;;;5120463;28;20464;-63
2022/04/11 08:05:19;;;;;;;4.40;3.93;;;11.90;99.90;;;;;;5119913;28;20864;-63
2022/04/11 08:07:47;;;;;;;6.17;4.50;;;12.10;99.90;;;;;;5119767;28;20463;-63
2022/04/11 08:12:56;;;;;;;6.07;3.70;;;12.30;99.90;;;;;;5118835;28;20808;-63
2022/04/11 08:15:24;;;;;;;7.20;5.30;;;12.50;99.90;;;;;;5119039;28;20520;-63
2022/04/11 08:17:58;;;;;;;7.67;4.50;;;12.50;99.90;;;;;;5118469;28;20456;-63
2022/04/11 08:20:36;;;;;;;6.80;5.90;;;12.60;99.90;;;;;;5118565;28;20470;-63
2022/04/11 08:23:05;;;;;;;6.60;4.60;;;12.60;99.90;;;;;;5119072;28;20490;-63
2022/04/11 08:25:32;;;;;;;5.20;4.70;;;12.90;99.90;;;;;;5119008;28;20542;-63
2022/04/11 08:28:03;;;;;;;6.10;4.97;;;13.20;99.90;;;;;;5118507;28;20868;-63
2022/04/11 08:30:30;;;;;;;6.10;4.30;;;13.20;99.90;;;;;;5119588;28;20932;-63
2022/04/11 08:33:03;;;;;;;5.10;4.60;;;13.40;99.90;;;;;;5118729;28;20888;-63
2022/04/11 08:35:30;;;;;;;5.47;4.60;;;13.60;99.90;;;;;;5119762;28;20466;-63
2022/04/11 08:38:00;;;;;;;5.70;4.87;;;13.60;99.90;;;;;;5126260;27;20465;-63
2022/04/11 08:40:31;;;;;;;5.30;4.47;;;13.70;99.90;;;;;;5131747;27;20489;-63
2022/04/11 08:43:03;;;;;;;6.40;4.50;;;13.90;99.90;;;;;;5119239;28;20460;-63
2022/04/11 08:45:32;;;;;;;8.50;5.07;;;13.90;99.90;;;;;;5119678;28;20799;-63
2022/04/11 08:48:00;;;;;;;7.33;4.40;;;13.90;99.90;;;;;;5118611;28;20498;-63
2022/04/11 08:50:28;;;;;;;5.00;4.37;;;14.00;99.90;;;;;;5119242;28;20803;-63
2022/04/11 08:52:58;;;;;;;4.30;3.90;;;14.00;99.90;;;;;;5118945;28;20486;-63
2022/04/11 08:55:25;;;;;;;7.43;4.20;;;13.80;99.90;;;;;;5118837;28;20544;-63
2022/04/11 08:58:01;;;;;;;5.40;4.37;;;13.70;99.90;;;;;;5118479;28;20930;-63
2022/04/11 09:00:31;;;;;;;6.23;4.70;;;13.70;99.90;;;;;;5118285;28;20464;-63
2022/04/11 09:03:01;;;;;;;9.23;6.10;;;13.70;99.90;;;;;;5118696;28;20542;-63
2022/04/11 09:05:33;;;;;;;9.47;5.30;;;13.60;99.90;;;;;;5116626;28;20464;-63
2022/04/11 09:08:03;;;;;;;9.00;6.20;;;13.80;99.90;;;;;;5116955;28;20456;-63
2022/04/11 09:10:37;;;;;;;10.73;6.20;;;14.40;99.90;;;;;;5118686;28;20789;-63
2022/04/11 09:13:09;;;;;;;7.50;5.93;;;14.70;99.90;;;;;;5118870;28;20905;-63
2022/04/11 09:15:43;;;;;;;7.73;5.37;;;15.00;99.90;;;;;;5118763;28;20902;-63
2022/04/11 09:18:10;;;;;;;6.60;4.90;;;15.00;99.90;;;;;;5118652;28;20581;-63
2022/04/11 09:20:42;;;;;;;8.80;5.10;;;15.00;99.90;;;;;;5117848;28;20560;-63
2022/04/11 09:23:19;;;;;;;6.53;4.60;;;15.10;99.90;;;;;;5118632;28;20526;-63
2022/04/11 09:25:45;;;;;;;5.43;4.93;;;15.10;99.90;;;;;;5117183;28;20493;-63
2022/04/11 09:28:14;;;;;;;4.80;4.00;;;15.30;99.90;;;;;;5118265;28;20525;-63
2022/04/11 09:30:44;;;;;;;7.40;4.57;;;15.50;99.90;;;;;;5117469;28;20467;-63
2022/04/11 09:33:11;;;;;;;5.33;4.40;;;15.50;99.90;;;;;;5116992;28;20455;-63
2022/04/11 09:35:40;;;;;;;4.83;4.33;;;15.50;99.90;;;;;;5097280;28;20460;-63
2022/04/11 09:38:13;;;;;;;7.30;5.40;;;15.60;99.90;;;;;;5118732;28;20463;-63
2022/04/11 09:40:41;;;;;;;5.37;4.90;;;15.40;99.90;;;;;;5117780;28;20471;-63
2022/04/11 09:43:12;;;;;;;5.50;4.47;;;15.60;99.90;;;;;;5116396;28;20467;-63
2022/04/11 09:45:51;;;;;;;4.70;4.30;;;15.40;99.90;;;;;;5116673;28;20888;-63
2022/04/11 09:48:21;;;;;;;5.63;4.57;;;15.80;99.90;;;;;;5116607;28;20455;-63
2022/04/11 09:50:49;;;;;;;6.07;4.20;;;15.90;99.90;;;;;;5117149;28;20464;-62
2022/04/11 09:53:19;;;;;;;4.77;4.10;;;16.00;99.90;;;;;;5117600;28;20755;-62
2022/04/11 09:55:50;;;;;;;6.93;4.63;;;16.20;99.90;;;;;;5117667;28;20533;-63
2022/04/11 09:58:22;;;;;;;4.60;4.20;;;16.30;99.90;;;;;;5117182;28;20923;-62
2022/04/11 10:00:53;;;;;;;5.07;4.60;;;16.50;99.90;;;;;;5117320;28;20506;-63
2022/04/11 10:03:22;;;;;;;5.40;4.90;;;16.30;99.90;;;;;;5117761;28;20485;-63
2022/04/11 10:05:53;;;;;;;7.80;4.90;;;16.50;99.90;;;;;;5117728;28;20498;-62
2022/04/11 10:08:27;;;;;;;5.77;5.00;;;16.80;99.90;;;;;;5125796;27;20466;-63
2022/04/11 10:10:57;;;;;;;4.50;4.03;;;17.00;99.90;;;;;;5120221;27;20859;-62
2022/04/11 10:13:27;;;;;;;4.80;3.97;;;17.00;99.90;;;;;;5116497;28;20466;-62
2022/04/11 10:15:56;;;;;;;6.03;4.30;;;16.80;99.90;;;;;;5125786;27;20494;-63
2022/04/11 10:18:26;;;;;;;4.80;3.97;;;17.10;99.90;;;;;;5119134;27;20800;-63
2022/04/11 10:20:57;;;;;;;5.80;4.43;;;17.00;99.90;;;;;;5115962;28;20466;-63
2022/04/11 10:23:35;;;;;;;4.20;3.90;;;16.90;99.90;;;;;;5116124;28;20494;-63
2022/04/11 10:26:13;;;;;;;5.00;4.50;;;16.80;99.90;;;;;;5116338;28;20506;-62
2022/04/11 10:28:52;;;;;;;4.77;4.37;;;17.30;99.90;;;;;;5115990;28;20463;-63
2022/04/11 10:31:21;;;;;;;4.30;4.00;;;17.40;99.90;;;;;;5114862;28;20907;-63
2022/04/11 10:33:54;;;;;;;5.60;5.10;;;17.20;99.90;;;;;;5115768;28;20548;-63
2022/04/11 10:36:42;;;;;;;5.23;4.67;;;17.00;99.90;;;;;;5115869;28;20505;-63
2022/04/11 10:39:30;;;;;;;5.20;4.77;;;16.90;99.90;;;;;;5107745;28;20841;-64
2022/04/11 10:42:13;;;;;;;4.90;4.50;;;17.10;99.90;;;;;;5115677;28;20463;-63
2022/04/11 10:44:43;;;;;;;4.77;4.33;;;16.90;99.90;;;;;;5115879;28;20512;-64
2022/04/11 10:47:34;;;;;;;6.00;4.90;;;16.70;99.90;;;;;;5114406;28;20468;-63
2022/04/11 10:50:27;;;;;;;5.40;4.70;;;16.70;99.90;;;;;;5116190;28;20459;-64
2022/04/11 10:53:12;;;;;;;5.77;4.77;;;16.40;99.90;;;;;;5115677;28;20534;-63
2022/04/11 10:56:13;;;;;;;5.10;4.70;;;16.50;99.90;;;;;;5114193;28;20487;-63
2022/04/11 10:58:53;;;;;;;6.80;4.77;;;16.70;99.90;;;;;;5114705;28;20898;-63
2022/04/11 11:01:56;;;;;;;4.67;4.30;;;16.90;99.90;;;;;;5113745;28;20469;-63
2022/04/11 11:04:34;;;;;;;5.20;4.30;;;17.50;99.90;;;;;;5113353;28;20462;-63
2022/04/11 11:07:23;;;;;;;4.37;3.93;;;17.90;99.90;;;;;;5114217;28;20899;-63
2022/04/11 11:09:57;;;;;;;4.67;4.30;;;18.00;99.90;;;;;;5113966;28;20490;-63
2022/04/11 11:12:25;;;;;;;5.10;4.60;;;17.80;99.90;;;;;;5114950;28;20572;-63
2022/04/11 11:14:52;;;;;;;5.70;4.80;;;18.00;99.90;;;;;;5107807;28;20498;-63
2022/04/11 11:17:20;;;;;;;5.07;4.57;;;18.00;99.90;;;;;;5112486;28;20451;-64
2022/04/11 11:20:07;;;;;;;5.30;4.87;;;18.20;99.90;;;;;;5113705;28;20473;-63
2022/04/11 11:22:36;;;;;;;5.00;4.50;;;18.20;99.90;;;;;;5113699;28;20518;-63
2022/04/11 11:25:22;;;;;;;7.97;4.77;;;18.30;99.90;;;;;;5113499;28;20535;-63
2022/04/11 11:27:49;;;;;;;5.93;5.43;;;18.70;99.90;;;;;;5112509;28;21022;-63
2022/04/11 11:30:22;;;;;;;4.83;4.37;;;19.20;99.90;;;;;;5112724;28;20471;-63
2022/04/11 11:32:49;;;;;;;6.07;5.13;;;19.20;99.90;;;;;;5112262;28;20459;-63
2022/04/11 11:35:20;;;;;;;6.10;5.03;;;18.80;99.90;;;;;;5114084;28;20523;-63
2022/04/11 11:37:47;;;;;;;4.67;4.23;;;19.10;99.90;;;;;;5111684;28;20521;-63
2022/04/11 11:40:20;;;;;;;7.07;4.87;;;19.00;99.90;;;;;;5113943;28;20493;-63
2022/04/11 11:42:47;;;;;;;5.53;4.50;;;18.70;99.90;;;;;;5112129;28;20892;-63
2022/04/11 11:45:27;;;;;;;5.00;4.50;;;18.60;99.90;;;;;;5115164;28;20491;-63
2022/04/11 11:47:54;;;;;;;4.73;4.33;;;18.70;99.90;;;;;;5114638;28;20559;-62
2022/04/11 11:50:23;;;;;;;6.63;4.20;;;18.70;99.90;;;;;;5113066;28;20456;-63
2022/04/11 11:53:00;;;;;;;7.00;4.00;;;18.60;99.90;;;;;;5119654;28;20463;-62
2022/04/11 11:55:27;;;;;;;4.37;3.90;;;18.40;99.90;;;;;;5119959;28;20874;-63
2022/04/11 11:58:03;;;;;;;4.20;3.70;;;18.50;99.90;;;;;;5119303;28;20581;-63
2022/04/11 12:00:35;;;;;;;5.43;4.20;;;18.60;99.90;;;;;;5118452;28;20498;-63
2022/04/11 12:05:59;;;;;;;4.43;4.03;;;18.50;99.90;;;;;;5119275;28;20442;-62
2022/04/11 12:08:30;;;;;;;4.80;4.30;;;18.50;99.90;;;;;;5118465;28;20463;-63
2022/04/11 12:10:59;;;;;;;4.40;4.00;;;18.80;99.90;;;;;;5118633;28;20496;-63
2022/04/11 12:13:37;;;;;;;3.83;3.53;;;18.80;99.90;;;;;;5118798;28;20562;-62
2022/04/11 12:16:15;;;;;;;4.60;3.73;;;18.80;99.90;;;;;;5119592;28;20497;-62
2022/04/11 12:18:51;;;;;;;4.30;3.90;;;18.10;99.90;;;;;;5120184;28;20463;-62
2022/04/11 12:21:30;;;;;;;4.23;3.77;;;18.30;99.90;;;;;;5119559;28;20516;-62
2022/04/11 12:23:57;;;;;;;6.03;3.60;;;18.60;99.90;;;;;;5119335;28;20459;-63
2022/04/11 12:26:41;;;;;;;3.50;3.20;;;18.90;99.90;;;;;;5118363;28;20498;-62
2022/04/11 12:29:14;;;;;;;4.90;3.53;;;19.10;99.90;;;;;;5119889;28;20463;-62
2022/04/11 12:31:55;;;;;;;3.50;3.20;;;19.20;99.90;;;;;;5119130;28;20467;-62
2022/04/11 12:34:31;;;;;;;3.97;3.57;;;19.20;99.90;;;;;;5119768;28;20849;-62
2022/04/11 12:37:02;;;;;;;3.17;2.97;;;19.60;99.90;;;;;;5118005;28;20455;-62
2022/04/11 12:39:32;;;;;;;4.80;3.40;;;19.40;99.90;;;;;;5119281;28;20463;-62
2022/04/11 12:41:59;;;;;;;3.90;3.50;;;19.10;99.90;;;;;;5129168;27;20501;-62
2022/04/11 12:44:34;;;;;;;4.50;3.37;;;19.30;99.90;;;;;;5103924;28;20884;-62
2022/04/11 12:47:06;;;;;;;3.47;3.13;;;19.40;99.90;;;;;;5110980;28;20466;-62
2022/04/11 12:49:44;;;;;;;4.20;3.30;;;19.60;99.90;;;;;;5118329;28;20550;-63
2022/04/11 12:52:16;;;;;;;5.90;3.50;;;20.00;99.90;;;;;;5118307;28;20456;-63
2022/04/11 12:54:47;;;;;;;3.73;3.43;;;19.60;99.90;;;;;;5117893;28;20483;-62
2022/04/11 12:57:22;;;;;;;3.73;3.30;;;19.70;99.90;;;;;;5116176;28;20552;-62
2022/04/11 12:59:51;;;;;;;5.80;3.40;;;19.80;99.90;;;;;;5117986;28;20473;-63
2022/04/11 13:02:33;;;;;;;3.73;3.43;;;19.90;99.90;;;;;;5116293;28;20483;-62
2022/04/11 13:05:02;;;;;;;4.03;2.90;;;19.40;99.90;;;;;;5115906;28;20544;-63
2022/04/11 13:07:31;;;;;;;4.60;3.67;;;19.50;99.90;;;;;;5118297;28;20459;-62
2022/04/11 13:09:58;;;;;;;3.50;3.20;;;19.90;99.90;;;;;;5125910;27;20447;-62
2022/04/11 13:12:25;;;;;;;4.23;3.73;;;19.80;99.90;;;;;;5126653;27;20479;-62
2022/04/11 13:14:55;;;;;;;4.53;3.63;;;19.70;99.90;;;;;;5125784;27;20532;-62
2022/04/11 13:20:09;;;;;;;6.60;3.53;;;19.80;99.90;;;;;;5126064;27;21038;-63
2022/04/11 13:22:38;;;;;;;3.47;3.13;;;20.00;99.90;;;;;;5127439;27;20455;-62
2022/04/11 13:25:08;;;;;;;3.60;3.30;;;20.10;99.90;;;;;;5127500;27;20957;-62